Flight Track Log - Related Links

Times and Time Zones

All times are in EDT time to prevent confusion due to time zone crossing. See the N451DS flight status page for this flight to view local times or setup timezone preferences in your user account.

Time Position Orientation Groundspeed Altitude Reporting Facility
EDT Latitude Longitude Course Direction KTS MPH feet Rate Location/Type
Wed 11:50:46 AM 35.0197 -80.6225 135° Southeast 74 85 1,100  Level Atlanta Center
Wed 11:51:05 AM 35.0258 -80.6147 46° Northeast 71 82 1,400 675 Climbing Atlanta Center
Wed 11:52:06 AM 35.0231 -80.5919 98° East 93 107 2,000 541 Climbing Atlanta Center
Wed 11:53:07 AM 35.0014 -80.5675 137° Southeast 107 123 2,500 492 Climbing Atlanta Center
Wed 11:54:08 AM 34.9781 -80.5483 146° Southeast 104 120 3,000 537 Climbing Atlanta Center
Wed 11:55:10 AM 34.9544 -80.5239 140° Southeast 104 120 3,600 516 Climbing Atlanta Center
Wed 11:56:00 AM 35.0174 -80.6220 135° Southeast  Level Estimated
Wed 11:56:16 AM 34.9306 -80.4944 135° Southeast 110 127 4,100  Level Atlanta Center
Wed 11:57:18 AM 34.9069 -80.4700 140° Southeast 112 129 4,600 513 Climbing Atlanta Center
Wed 11:58:13 AM 34.8875 -80.4506 141° Southeast 109 125 5,100 197 Climbing Atlanta Center
Wed 11:59:20 AM 34.8572 -80.4167 137° Southeast 128 147 5,000 -49 Descending Atlanta Center
Wed 12:00:15 PM 34.8294 -80.3900 142° Southeast 136 157 5,000 52 Level Atlanta Center
Wed 12:01:16 PM 34.8036 -80.3608 137° Southeast 133 153 5,100 49 Climbing Atlanta Center
Wed 12:02:17 PM 34.7733 -80.3317 142° Southeast 131 151 5,100  Level Atlanta Center
Wed 12:03:24 PM 34.7414 -80.3028 143° Southeast 130 150 5,100  Level Atlanta Center
Wed 12:05:00 PM 34.7861 -80.3500 319° Northwest  Level FlightAware Approximate
Wed 12:12:00 PM 34.9790 -80.5619 318° Northwest  Level FlightAware Approximate
Wed 12:13:00 PM 35.0030 -80.5961 309° West  Level FlightAware Approximate
Wed 12:14:00 PM 35.0167 -80.6167 309° West  Level FlightAware Approximate
Wed 12:15:00 PM 35.0174 -80.6220 309° West  Level Estimated
Wed 12:16:00 PM 35.0167 -80.6167 309° West  Level FlightAware Approximate
Wed 12:17:00 PM 35.0174 -80.6220 309° West  Level Estimated
Wed 12:18:00 PM 35.0167 -80.6167 309° West  Level FlightAware Approximate
Wed 12:19:00 PM 35.0174 -80.6220 309° West  Level Estimated
Wed 12:20:00 PM 35.0167 -80.6167 309° West  Level FlightAware Approximate
Wed 12:21:00 PM 35.0174 -80.6220 309° West  Level Estimated
Wed 12:22:00 PM 35.0167 -80.6167 309° West  Level FlightAware Approximate
Wed 12:23:00 PM 35.0174 -80.6220 309° West  Level Estimated
Wed 12:24:00 PM 35.0167 -80.6167 309° West  Level FlightAware Approximate
Wed 12:25:00 PM 35.0174 -80.6220 309° West  Level Estimated

Login

Don't have an account? Register now (free) for customized features, flight alerts, and more!